Time;durP1;ratioP1;P1;durP2;ratioP2;P2;SDS_P1;SDS_P2;PMS_P1;PMS_P2;Temp;Humidity;BMP_temperature;BMP_pressure;BME280_temperature;BME280_humidity;BME280_pressure;Samples;Min_cycle;Max_cycle;Signal;HPM_P1;HPM_P2
2022/08/17 00:00:36;;;;;;;36.08;32.58;;;;;;;21.13;73.83;100866.59;5051803;28;20112;-75
2022/08/17 00:03:13;;;;;;;38.38;34.33;;;;;;;21.08;73.57;100862.81;5050458;28;20032;-81
2022/08/17 00:06:00;;;;;;;38.00;33.92;;;;;;;21.14;73.53;100857.56;5053266;28;20032;-81
2022/08/17 00:08:32;;;;;;;38.63;34.67;;;;;;;21.12;73.93;100854.25;5044821;28;20502;-80
2022/08/17 00:10:59;;;;;;;39.45;35.70;;;;;;;21.12;74.29;100851.56;5048129;28;20029;-81
2022/08/17 00:13:46;;;;;;;37.70;33.75;;;;;;;21.13;73.93;100855.91;5053255;28;20025;-81
2022/08/17 00:16:18;;;;;;;39.67;35.65;;;;;;;21.13;73.87;100839.03;5052000;28;20028;-75
2022/08/17 00:18:44;;;;;;;40.50;36.53;;;;;;;21.12;74.26;100834.69;5059167;28;20036;-74
2022/08/17 00:21:11;;;;;;;40.72;36.88;;;;;;;21.00;74.85;100826.28;5052255;28;20025;-74
2022/08/17 00:23:39;;;;;;;40.13;36.13;;;;;;;21.00;74.67;100825.44;5052459;28;20032;-74
2022/08/17 00:26:05;;;;;;;40.40;36.40;;;;;;;20.99;74.90;100827.28;5051765;28;20025;-74
2022/08/17 00:28:30;;;;;;;39.83;35.47;;;;;;;21.03;74.80;100823.22;5050242;28;20405;-75
2022/08/17 00:30:55;;;;;;;40.78;37.08;;;;;;;21.00;75.12;100820.09;5052383;28;20024;-75
2022/08/17 00:33:24;;;;;;;42.58;38.33;;;;;;;20.95;75.46;100826.81;5052110;28;20028;-74
2022/08/17 00:35:50;;;;;;;42.75;38.63;;;;;;;20.95;75.78;100826.81;5052650;28;20048;-75
2022/08/17 00:38:16;;;;;;;42.10;37.80;;;;;;;20.96;75.62;100823.13;5050514;28;20135;-75
2022/08/17 00:40:46;;;;;;;42.47;38.28;;;;;;;20.98;75.91;100824.78;5052108;28;20557;-80
2022/08/17 00:43:15;;;;;;;44.53;39.90;;;;;;;20.93;76.03;100818.16;5049973;28;20106;-81
2022/08/17 00:45:41;;;;;;;44.78;38.78;;;;;;;20.96;76.16;100817.78;5046160;28;20033;-80
2022/08/17 00:48:07;;;;;;;46.53;41.47;;;;;;;20.94;76.43;100813.63;5058808;28;20386;-81
2022/08/17 00:50:34;;;;;;;44.50;40.22;;;;;;;20.91;76.54;100816.66;5050983;28;20079;-80
2022/08/17 00:52:59;;;;;;;45.53;40.92;;;;;;;20.91;76.62;100814.81;5049555;28;20071;-79
2022/08/17 00:55:26;;;;;;;44.25;40.00;;;;;;;20.94;76.54;100813.63;5053893;28;20033;-80
2022/08/17 00:57:57;;;;;;;45.67;40.60;;;;;;;20.91;76.48;100811.31;5063577;28;20106;-81
2022/08/17 01:00:31;;;;;;;43.70;39.55;;;;;;;20.94;76.53;100818.97;5051578;28;20063;-78
2022/08/17 01:03:01;;;;;;;44.15;39.75;;;;;;;20.94;76.80;100814.47;5048607;28;20033;-80
2022/08/17 01:05:30;;;;;;;44.22;40.08;;;;;;;20.90;76.66;100812.34;5046710;28;20048;-80
2022/08/17 01:07:57;;;;;;;44.13;40.05;;;;;;;20.93;76.53;100817.31;5051122;28;20033;-79
2022/08/17 01:10:34;;;;;;;44.65;40.17;;;;;;;20.93;76.03;100817.31;5049762;28;20020;-79
2022/08/17 01:13:03;;;;;;;45.30;40.95;;;;;;;20.87;76.99;100808.19;5050128;28;20032;-80
2022/08/17 01:15:31;;;;;;;44.83;40.25;;;;;;;20.90;76.64;100809.66;5051351;28;20032;-80
2022/08/17 01:17:57;;;;;;;46.33;41.40;;;;;;;20.84;77.06;100811.22;5050391;28;20028;-81
2022/08/17 01:20:22;;;;;;;44.92;40.30;;;;;;;20.89;76.78;100810.66;5049981;28;20521;-80
2022/08/17 01:22:48;;;;;;;44.50;40.33;;;;;;;20.87;76.39;100796.66;5046357;28;20027;-80
2022/08/17 01:25:14;;;;;;;44.33;40.05;;;;;;;20.90;76.58;100798.97;5050111;28;20486;-80
2022/08/17 01:27:41;;;;;;;44.08;39.60;;;;;;;20.84;76.78;100797.84;5051369;28;20109;-74
2022/08/17 01:30:10;;;;;;;43.30;39.17;;;;;;;20.84;76.62;100797.03;5058645;28;20028;-80
2022/08/17 01:32:36;;;;;;;44.35;39.83;;;;;;;20.84;76.58;100797.84;5050133;28;20036;-80
2022/08/17 01:35:03;;;;;;;42.63;38.35;;;;;;;20.85;76.70;100793.31;5050181;28;20476;-80
2022/08/17 01:37:36;;;;;;;41.53;37.67;;;;;;;20.86;76.32;100784.28;5052914;28;20029;-80
2022/08/17 01:40:11;;;;;;;42.42;38.33;;;;;;;20.88;76.33;100790.28;5051207;28;20025;-80
2022/08/17 01:42:40;;;;;;;41.33;37.42;;;;;;;20.84;76.80;100791.66;5050089;28;20542;-79
2022/08/17 01:45:17;;;;;;;42.92;39.00;;;;;;;20.81;76.51;100786.66;5049458;28;20032;-80
2022/08/17 01:47:43;;;;;;;40.63;37.03;;;;;;;20.83;76.55;100782.81;5050949;28;20041;-80
2022/08/17 01:50:12;;;;;;;42.10;37.60;;;;;;;20.81;76.37;100782.16;5049660;28;20425;-80
2022/08/17 01:52:38;;;;;;;40.65;36.95;;;;;;;20.80;76.83;100779.66;5055816;28;20271;-80
2022/08/17 01:55:05;;;;;;;40.33;36.25;;;;;;;20.80;76.91;100774.28;5046773;28;20475;-80
2022/08/17 01:57:31;;;;;;;40.50;36.70;;;;;;;20.78;76.68;100779.81;5051025;28;20025;-80
2022/08/17 01:59:58;;;;;;;39.53;35.63;;;;;;;20.75;76.87;100780.19;5050676;28;20087;-80
2022/08/17 02:02:24;;;;;;;41.25;36.42;;;;;;;20.72;76.77;100775.22;5047304;28;20029;-80
2022/08/17 02:04:49;;;;;;;40.17;36.20;;;;;;;20.73;76.80;100784.88;5049947;28;20032;-80
2022/08/17 02:07:16;;;;;;;42.38;38.08;;;;;;;20.69;77.05;100775.56;5049975;28;20032;-79
2022/08/17 02:09:42;;;;;;;39.67;35.55;;;;;;;20.66;77.09;100775.94;5049867;28;20896;-80
2022/08/17 02:12:08;;;;;;;40.50;36.60;;;;;;;20.65;77.00;100764.41;5044196;28;20024;-74
2022/08/17 02:14:33;;;;;;;39.42;35.45;;;;;;;20.65;77.00;100769.75;5050240;28;20032;-74
2022/08/17 02:16:59;;;;;;;40.28;36.58;;;;;;;20.64;77.18;100765.41;5046412;28;20027;-73
2022/08/17 02:19:24;;;;;;;40.42;36.53;;;;;;;20.64;77.22;100772.63;5048924;28;20029;-79
2022/08/17 02:21:52;;;;;;;40.00;35.92;;;;;;;20.58;77.46;100771.50;5049773;28;20036;-79
2022/08/17 02:24:24;;;;;;;38.38;34.78;;;;;;;20.61;77.63;100773.81;5049298;28;20024;-79
2022/08/17 02:26:50;;;;;;;41.58;37.65;;;;;;;20.59;77.85;100773.16;5050269;28;20036;-74
2022/08/17 02:29:15;;;;;;;40.75;36.67;;;;;;;20.59;77.53;100778.50;5045973;28;20025;-79
2022/08/17 02:31:42;;;;;;;40.78;37.03;;;;;;;20.61;77.83;100770.31;5049189;28;20033;-75
2022/08/17 02:34:08;;;;;;;42.40;38.35;;;;;;;20.58;77.53;100766.16;5047786;28;20028;-75
2022/08/17 02:36:34;;;;;;;41.60;37.60;;;;;;;20.56;78.17;100768.16;5056111;28;20021;-79
2022/08/17 02:39:03;;;;;;;42.67;38.42;;;;;;;20.56;77.69;100757.47;5049245;28;20107;-74
2022/08/17 02:41:29;;;;;;;42.97;38.55;;;;;;;20.52;78.14;100766.88;5056741;28;20041;-74
2022/08/17 02:43:54;;;;;;;44.60;40.28;;;;;;;20.46;78.71;100766.75;5048180;28;20033;-74
2022/08/17 02:46:19;;;;;;;46.20;41.75;;;;;;;20.41;78.44;100761.94;5047076;28;20029;-74
2022/08/17 02:48:45;;;;;;;42.60;38.78;;;;;;;20.44;78.32;100763.44;5044914;28;20082;-74
2022/08/17 02:51:10;;;;;;;45.70;41.25;;;;;;;20.37;78.44;100757.09;5046816;28;20814;-74
2022/08/17 02:53:36;;;;;;;46.33;42.15;;;;;;;20.28;79.42;100767.84;5051695;28;20053;-74
2022/08/17 02:56:01;;;;;;;47.22;42.65;;;;;;;20.25;79.35;100754.03;5050191;28;20112;-73
2022/08/17 02:58:26;;;;;;;46.95;42.70;;;;;;;20.21;79.88;100750.03;5053336;28;20075;-74
2022/08/17 03:00:52;;;;;;;47.65;43.10;;;;;;;20.20;80.01;100751.06;5050046;28;20029;-80
2022/08/17 03:03:17;;;;;;;48.42;43.65;;;;;;;20.21;80.31;100750.03;5043920;28;20425;-79
2022/08/17 03:05:48;;;;;;;47.63;42.92;;;;;;;20.19;80.31;100746.72;5049232;28;20068;-74
2022/08/17 03:08:14;;;;;;;48.97;43.80;;;;;;;20.12;80.66;100743.09;5047362;28;20056;-75
2022/08/17 03:10:41;;;;;;;49.30;44.30;;;;;;;20.06;81.20;100739.31;5049267;28;20021;-74
2022/08/17 03:13:06;;;;;;;48.70;43.47;;;;;;;20.00;81.66;100737.31;5047940;28;20051;-74
2022/08/17 03:15:33;;;;;;;46.03;41.55;;;;;;;20.00;81.38;100730.13;5053396;28;20021;-80
2022/08/17 03:18:00;;;;;;;44.70;40.47;;;;;;;20.02;81.43;100740.69;5048358;28;20155;-79
2022/08/17 03:20:28;;;;;;;45.40;41.13;;;;;;;19.99;81.77;100744.50;5046020;28;20162;-78
2022/08/17 03:22:56;;;;;;;45.70;41.15;;;;;;;19.96;81.52;100738.69;5048397;28;20029;-80
2022/08/17 03:25:25;;;;;;;45.53;41.47;;;;;;;19.94;81.71;100738.88;5052521;28;20474;-79
2022/08/17 03:27:51;;;;;;;47.10;42.47;;;;;;;19.91;82.11;100738.38;5054101;28;20041;-80
2022/08/17 03:30:17;;;;;;;45.08;40.53;;;;;;;19.91;81.91;100746.41;5047900;28;20107;-78
2022/08/17 03:32:46;;;;;;;46.10;41.50;;;;;;;19.82;82.20;100748.28;5053305;28;20116;-79
2022/08/17 03:35:14;;;;;;;45.60;41.35;;;;;;;19.81;81.99;100743.13;5046047;28;20320;-80
2022/08/17 03:37:40;;;;;;;47.42;42.58;;;;;;;19.81;82.17;100753.81;5050032;28;20032;-74
2022/08/17 03:40:06;;;;;;;45.10;40.67;;;;;;;19.86;81.95;100748.78;5047720;28;20524;-80
2022/08/17 03:42:33;;;;;;;44.38;40.40;;;;;;;19.83;82.15;100751.78;5052214;28;20061;-78
2022/08/17 03:44:59;;;;;;;44.42;40.22;;;;;;;19.79;82.14;100756.66;5044524;28;20033;-74
2022/08/17 03:58:22;;;;;;;44.65;40.22;;;;;;;19.71;83.07;100767.38;5048782;28;20086;-74
2022/08/17 04:00:48;;;;;;;45.42;41.20;;;;;;;19.70;83.21;100774.56;5048605;28;20029;-74
2022/08/17 04:03:14;;;;;;;44.63;40.53;;;;;;;19.69;83.42;100774.75;5045425;28;20040;-74
2022/08/17 04:05:40;;;;;;;46.05;41.60;;;;;;;19.69;83.47;100786.25;5047689;28;20028;-74
2022/08/17 04:08:05;;;;;;;46.70;42.22;;;;;;;19.73;82.95;100800.09;5043076;28;20040;-73
2022/08/17 04:10:31;;;;;;;48.50;42.85;;;;;;;19.67;83.71;100803.44;5046607;28;20106;-73
2022/08/17 04:12:57;;;;;;;49.15;44.60;;;;;;;19.61;84.75;100814.78;5046325;28;20086;-74
2022/08/17 04:15:24;;;;;;;48.95;44.20;;;;;;;19.63;84.95;100824.31;5046025;28;20421;-74
2022/08/17 04:17:50;;;;;;;50.03;45.03;;;;;;;19.64;85.59;100812.63;5048778;28;20032;-79
2022/08/17 04:20:16;;;;;;;51.63;46.55;;;;;;;19.61;86.48;100806.78;5047523;28;20078;-74
2022/08/17 04:22:58;;;;;;;51.03;46.13;;;;;;;19.63;85.82;100808.31;5047282;28;20514;-80
2022/08/17 04:25:24;;;;;;;47.88;43.55;;;;;;;19.65;86.34;100816.97;5045396;28;20055;-74
2022/08/17 04:27:50;;;;;;;47.35;42.88;;;;;;;19.64;86.27;100817.16;5045577;28;20049;-79
2022/08/17 04:30:15;;;;;;;46.35;42.00;;;;;;;19.67;86.24;100827.47;5047474;28;20055;-79
2022/08/17 04:33:00;;;;;;;49.25;44.60;;;;;;;19.68;86.18;100829.13;5048423;28;20024;-79
2022/08/17 04:35:30;;;;;;;47.05;42.33;;;;;;;19.68;86.79;100839.81;5048887;28;20025;-81
2022/08/17 04:37:56;;;;;;;46.53;41.97;;;;;;;19.69;87.05;100852.16;5049894;28;20039;-80
2022/08/17 04:43:20;;;;;;;49.47;44.25;;;;;;;19.69;87.53;100849.50;5021651;28;20048;-80
2022/08/17 04:45:52;;;;;;;45.30;40.90;;;;;;;19.70;87.46;100872.50;5052292;28;20075;-80
2022/08/17 04:48:17;;;;;;;48.20;43.42;;;;;;;19.71;87.48;100855.50;5052163;28;20029;-80
2022/08/17 04:50:46;;;;;;;46.58;42.13;;;;;;;19.71;87.34;100863.50;5054100;28;20029;-78
2022/08/17 04:53:13;;;;;;;46.83;42.45;;;;;;;19.71;87.62;100844.81;5051657;28;20021;-80
2022/08/17 04:55:38;;;;;;;47.80;42.92;;;;;;;19.69;88.16;100841.50;5052696;28;20490;-79
2022/08/17 04:58:04;;;;;;;47.28;42.40;;;;;;;19.70;88.56;100851.16;5056023;28;20025;-79
2022/08/17 05:00:29;;;;;;;47.47;42.88;;;;;;;19.71;88.35;100834.97;5051684;28;20086;-80
2022/08/17 05:02:55;;;;;;;44.17;40.08;;;;;;;19.72;87.73;100843.81;5051440;28;20028;-74
2022/08/17 05:05:29;;;;;;;43.92;39.67;;;;;;;19.76;87.45;100847.78;5050860;28;20028;-75
2022/08/17 05:08:00;;;;;;;45.97;41.50;;;;;;;19.73;88.35;100840.13;5051248;28;20055;-75
2022/08/17 05:10:29;;;;;;;45.95;41.25;;;;;;;19.73;88.67;100839.31;5044009;28;20470;-75
2022/08/17 05:13:03;;;;;;;44.97;40.35;;;;;;;19.77;88.86;100832.59;5050315;28;20040;-75
2022/08/17 05:15:30;;;;;;;45.33;41.03;;;;;;;19.78;89.05;100823.59;5045844;28;20036;-75
2022/08/17 05:17:55;;;;;;;45.22;40.70;;;;;;;19.82;88.47;100825.72;5048578;28;20029;-75
2022/08/17 05:20:22;;;;;;;45.55;41.20;;;;;;;19.81;89.18;100837.41;5049533;28;20387;-75
2022/08/17 05:22:53;;;;;;;44.75;40.30;;;;;;;19.79;89.22;100836.75;5051361;28;20025;-81
2022/08/17 05:25:25;;;;;;;42.05;38.33;;;;;;;19.84;89.06;100841.56;5050642;28;20024;-79
2022/08/17 05:27:52;;;;;;;42.95;38.53;;;;;;;19.89;89.01;100839.22;5046598;28;20029;-80
2022/08/17 05:30:17;;;;;;;42.95;38.72;;;;;;;19.92;88.63;100829.00;5049480;28;20036;-79
2022/08/17 05:32:58;;;;;;;38.90;34.92;;;;;;;20.02;87.87;100834.16;5050012;28;20017;-79
2022/08/17 05:35:25;;;;;;;39.78;36.10;;;;;;;20.08;87.95;100828.13;5051176;28;20032;-79
2022/08/17 05:37:50;;;;;;;39.20;35.50;;;;;;;20.15;87.71;100828.25;5050436;28;20035;-78
2022/08/17 05:40:17;;;;;;;39.88;35.95;;;;;;;20.19;87.25;100817.03;5048530;28;20041;-80
2022/08/17 05:42:43;;;;;;;39.28;35.42;;;;;;;20.25;87.87;100823.50;5051261;28;20103;-80
2022/08/17 05:45:10;;;;;;;36.58;32.80;;;;;;;20.35;86.72;100824.09;5051205;28;20115;-79
2022/08/17 05:47:37;;;;;;;36.60;33.38;;;;;;;20.41;86.62;100834.09;5050867;28;20056;-80
2022/08/17 05:50:04;;;;;;;40.58;36.78;;;;;;;20.45;86.66;100824.75;5050740;28;20497;-79
2022/08/17 05:52:34;;;;;;;40.95;36.90;;;;;;;20.52;85.80;100831.03;5051009;28;20032;-79
2022/08/17 05:55:22;;;;;;;38.45;34.67;;;;;;;20.60;85.50;100827.47;5050384;28;20036;-80
2022/08/17 05:57:52;;;;;;;35.85;32.65;;;;;;;20.67;85.23;100833.75;5057055;28;20024;-79
2022/08/17 06:00:19;;;;;;;36.55;32.78;;;;;;;20.77;84.62;100830.81;5057749;28;20036;-73
2022/08/17 06:03:03;;;;;;;35.72;31.90;;;;;;;20.80;83.81;100839.31;5052346;28;20052;-74
2022/08/17 06:06:00;;;;;;;33.67;30.63;;;;;;;20.87;83.88;100847.47;5054497;28;20786;-74
2022/08/17 06:08:59;;;;;;;32.42;29.00;;;;;;;20.90;84.32;100839.91;5053228;28;20017;-74
2022/08/17 06:11:27;;;;;;;32.25;29.35;;;;;;;20.96;82.76;100839.19;5019136;28;20029;-74
2022/08/17 06:14:06;;;;;;;33.60;30.20;;;;;;;21.03;83.44;100844.63;5058748;28;20032;-79
2022/08/17 06:16:37;;;;;;;38.35;30.70;;;;;;;21.03;82.88;100841.13;5052716;28;20541;-80
2022/08/17 06:19:14;;;;;;;33.88;30.38;;;;;;;21.09;82.75;100838.56;5055563;28;20035;-79
2022/08/17 06:21:43;;;;;;;34.72;29.20;;;;;;;21.07;82.54;100840.59;5059508;28;20044;-79
2022/08/17 06:24:27;;;;;;;31.50;27.08;;;;;;;21.10;82.21;100848.25;5056656;28;20050;-79
2022/08/17 06:26:56;;;;;;;28.63;26.00;;;;;;;21.13;81.66;100850.56;5057027;28;20032;-77
2022/08/17 06:29:35;;;;;;;28.50;25.55;;;;;;;21.13;81.35;100861.25;5055944;28;20029;-81
2022/08/17 06:32:02;;;;;;;26.95;24.35;;;;;;;21.17;80.43;100862.56;5060819;28;20081;-80
2022/08/17 06:34:28;;;;;;;27.20;23.90;;;;;;;21.16;81.10;100868.09;5055882;28;20053;-80
2022/08/17 06:37:17;;;;;;;24.55;22.30;;;;;;;21.12;82.06;100875.66;5052617;28;20059;-79
2022/08/17 06:40:30;;;;;;;24.45;22.20;;;;;;;21.21;80.99;100879.06;5048463;28;20757;-79
2022/08/17 06:43:04;;;;;;;;;;;;;;;21.30;80.09;100875.38;5047146;28;20052;-79
2022/08/17 06:45:36;;;;;;;24.90;22.30;;;;;;;21.15;80.06;100875.28;5058685;28;19912;-80
2022/08/17 06:48:07;;;;;;;23.80;21.30;;;;;;;21.05;79.60;100872.03;5060917;28;20024;-80
2022/08/17 06:50:35;;;;;;;22.83;20.60;;;;;;;21.07;79.85;100878.03;5051436;28;20021;-79
2022/08/17 06:53:19;;;;;;;24.50;21.90;;;;;;;21.01;80.02;100884.13;5053948;28;20033;-74
2022/08/17 06:55:57;;;;;;;32.75;22.98;;;;;;;20.97;80.01;100888.16;5048474;28;20095;-80
2022/08/17 06:58:24;;;;;;;26.40;23.60;;;;;;;20.96;79.94;100889.19;5048563;28;20048;-80
2022/08/17 07:00:52;;;;;;;22.85;20.58;;;;;;;20.95;80.34;100896.38;5048640;28;20436;-79
2022/08/17 07:03:36;;;;;;;22.33;20.23;;;;;;;20.96;79.97;100892.69;5047045;28;20083;-80
2022/08/17 07:06:11;;;;;;;22.08;19.75;;;;;;;20.91;79.87;100883.53;5047024;28;20032;-80
2022/08/17 07:08:56;;;;;;;21.42;19.23;;;;;;;20.95;80.16;100891.03;5049304;28;20076;-80
2022/08/17 07:11:31;;;;;;;20.60;18.55;;;;;;;21.02;79.74;100890.31;5044900;28;20027;-79
2022/08/17 07:14:21;;;;;;;21.73;19.50;;;;;;;21.03;79.65;100900.81;5043297;28;20030;-79
2022/08/17 07:16:51;;;;;;;20.85;18.83;;;;;;;21.14;79.73;100905.75;5047581;28;20700;-80
2022/08/17 07:19:21;;;;;;;22.40;18.30;;;;;;;21.16;79.39;100909.06;5039667;28;20025;-80
2022/08/17 07:22:05;;;;;;;20.52;18.55;;;;;;;21.26;78.68;100909.69;5047822;28;20060;-79
2022/08/17 07:24:36;;;;;;;21.35;19.13;;;;;;;21.28;78.63;100912.19;5050851;28;20029;-80
2022/08/17 07:27:26;;;;;;;20.83;18.77;;;;;;;21.36;78.97;100905.91;5048784;28;20064;-80
2022/08/17 07:29:55;;;;;;;20.98;18.77;;;;;;;21.34;79.08;100905.28;5040671;28;20067;-80
2022/08/17 07:32:34;;;;;;;21.73;19.45;;;;;;;21.42;78.32;100905.19;5039639;28;20082;-81
2022/08/17 07:35:06;;;;;;;20.80;18.70;;;;;;;21.41;78.02;100908.88;5047408;28;20490;-80
2022/08/17 07:37:32;;;;;;;19.98;18.25;;;;;;;21.41;78.46;100911.56;5048817;28;20094;-79
2022/08/17 07:39:57;;;;;;;22.63;18.83;;;;;;;21.36;78.02;100919.31;5047734;28;20029;-81
2022/08/17 07:42:22;;;;;;;20.77;18.58;;;;;;;21.40;78.45;100917.94;5048839;28;20048;-80
2022/08/17 07:48:17;;;;;;;21.92;18.83;;;;;;;21.41;78.42;100927.63;5049372;28;20036;-80
2022/08/17 07:50:34;;;;;;;19.70;17.92;;;;;;;21.50;78.91;100921.16;5043382;28;20035;-81
2022/08/17 07:53:15;;;;;;;20.50;18.35;;;;;;;21.58;78.51;100929.09;5048372;28;20398;-80
2022/08/17 07:55:41;;;;;;;20.38;18.38;;;;;;;21.53;77.58;100918.13;5043697;28;20079;-80
2022/08/17 07:58:08;;;;;;;20.65;18.52;;;;;;;21.56;78.33;100921.25;5048960;28;20494;-80
2022/08/17 08:00:33;;;;;;;20.42;18.40;;;;;;;21.67;77.38;100922.66;5048776;28;20029;-79
2022/08/17 08:03:26;;;;;;;20.70;18.70;;;;;;;21.80;77.52;100920.19;5049039;28;20073;-78
2022/08/17 08:06:00;;;;;;;20.67;18.40;;;;;;;21.86;76.92;100924.78;5048301;28;20028;-79
2022/08/17 08:08:31;;;;;;;19.75;17.20;;;;;;;21.86;76.79;100926.63;5048651;28;20033;-79
2022/08/17 08:11:05;;;;;;;19.17;17.40;;;;;;;21.93;76.62;100921.38;5037470;28;20109;-79
2022/08/17 08:13:31;;;;;;;19.58;17.58;;;;;;;21.94;76.62;100918.50;5054417;28;20572;-79
2022/08/17 08:16:24;;;;;;;21.00;19.08;;;;;;;22.01;76.88;100931.97;5040364;28;20040;-79
2022/08/17 08:18:53;;;;;;;21.25;19.15;;;;;;;21.98;75.86;100924.31;5045860;28;20075;-74
2022/08/17 08:21:41;;;;;;;21.23;19.20;;;;;;;22.03;76.10;100921.94;5048635;28;20040;-74
2022/08/17 08:24:31;;;;;;;23.35;19.45;;;;;;;22.10;75.51;100929.06;5048670;28;20466;-75
2022/08/17 08:27:25;;;;;;;22.40;20.30;;;;;;;22.15;75.32;100920.47;5040608;28;20151;-76
2022/08/17 08:30:03;;;;;;;23.00;20.80;;;;;;;22.09;75.15;100915.84;5042926;28;20554;-74
2022/08/17 08:33:11;;;;;;;21.92;19.73;;;;;;;22.04;75.54;100910.22;5045337;28;20017;-74
2022/08/17 08:35:52;;;;;;;21.88;19.95;;;;;;;22.11;75.75;100911.13;5046395;28;20045;-74
2022/08/17 08:38:38;;;;;;;24.17;19.90;;;;;;;22.22;75.97;100909.81;5045374;28;20021;-76
2022/08/17 08:41:18;;;;;;;22.92;20.88;;;;;;;22.18;74.99;100909.38;5039149;28;20025;-74
2022/08/17 08:44:11;;;;;;;23.38;21.20;;;;;;;22.14;74.70;100910.75;5045915;28;20029;-74
2022/08/17 08:46:52;;;;;;;23.42;21.20;;;;;;;22.15;74.95;100913.25;5046584;28;20072;-74
2022/08/17 08:49:45;;;;;;;24.10;21.52;;;;;;;22.16;75.20;100935.53;5051719;28;20028;-75
2022/08/17 08:52:16;;;;;;;;;;;;;;;22.41;74.48;100944.06;5050990;28;20063;-75
2022/08/17 08:54:57;;;;;;;22.17;20.15;;;;;;;22.45;74.62;100940.00;5045077;28;20324;-75
2022/08/17 08:57:41;;;;;;;21.90;19.75;;;;;;;22.53;74.68;100956.00;5040649;28;20024;-75
2022/08/17 09:00:22;;;;;;;22.13;19.95;;;;;;;22.62;73.91;100954.00;5046843;28;20029;-75
2022/08/17 09:03:18;;;;;;;23.25;20.90;;;;;;;22.68;72.89;100942.53;5044988;28;20113;-80
2022/08/17 09:06:15;;;;;;;23.42;21.00;;;;;;;22.72;72.76;100941.94;5050549;28;20064;-79
2022/08/17 09:09:17;;;;;;;22.33;20.27;;;;;;;22.72;73.08;100950.00;5044831;28;20049;-79
2022/08/17 09:11:46;;;;;;;23.20;20.88;;;;;;;22.59;72.65;100944.50;5045794;28;20060;-79
2022/08/17 09:14:24;;;;;;;22.55;20.42;;;;;;;22.61;73.08;100937.09;5046019;28;20580;-79
2022/08/17 09:17:14;;;;;;;21.63;19.63;;;;;;;22.62;73.53;100948.66;5048359;28;20505;-79
2022/08/17 09:19:43;;;;;;;22.45;20.20;;;;;;;22.64;73.54;100947.44;5053639;28;20071;-79
2022/08/17 09:22:41;;;;;;;21.80;19.70;;;;;;;22.74;72.96;100952.50;5049945;28;20054;-79
2022/08/17 09:25:11;;;;;;;20.58;18.15;;;;;;;22.75;73.60;100943.41;5050589;28;20120;-79
2022/08/17 09:27:58;;;;;;;20.55;18.55;;;;;;;22.79;73.25;100950.06;5050240;28;20032;-80
2022/08/17 09:30:35;;;;;;;23.33;20.23;;;;;;;22.64;72.92;100954.66;5046543;28;20457;-80
2022/08/17 09:33:06;;;;;;;21.63;19.52;;;;;;;22.54;73.93;100972.91;5041818;28;20025;-78
2022/08/17 09:35:36;;;;;;;21.02;19.02;;;;;;;22.51;74.70;100974.94;5050348;28;20036;-79
2022/08/17 09:38:30;;;;;;;20.73;18.65;;;;;;;22.64;75.77;100995.72;5038590;28;20368;-79
2022/08/17 09:41:16;;;;;;;23.15;20.73;;;;;;;22.48;75.21;101001.31;5028675;28;20646;-79
2022/08/17 09:43:47;;;;;;;25.35;22.40;;;;;;;22.41;76.66;101006.56;5049868;28;20033;-79
2022/08/17 09:46:32;;;;;;;24.20;21.80;;;;;;;22.29;75.39;101026.84;5046508;28;20068;-79
2022/08/17 09:49:14;;;;;;;24.95;22.45;;;;;;;22.14;78.05;101034.06;5042431;28;20479;-77
2022/08/17 09:52:07;;;;;;;24.73;22.42;;;;;;;22.14;79.33;101050.13;5042218;28;20020;-78
2022/08/17 09:54:37;;;;;;;24.90;22.52;;;;;;;21.95;79.30;101053.31;5049757;28;20029;-78
2022/08/17 09:57:17;;;;;;;25.65;22.25;;;;;;;21.91;81.21;101050.16;5043586;28;20041;-77
2022/08/17 10:00:16;;;;;;;28.45;22.30;;;;;;;21.89;79.91;101038.78;5038875;28;20031;-78
2022/08/17 10:03:08;;;;;;;26.45;22.70;;;;;;;21.88;81.64;101021.88;5042065;28;20479;-77
2022/08/17 10:05:51;;;;;;;26.60;23.92;;;;;;;21.80;84.77;101011.25;5046705;28;20020;-79
2022/08/17 10:08:38;;;;;;;30.23;25.17;;;;;;;21.69;87.40;101010.88;5048555;28;20434;-77
2022/08/17 10:14:35;;;;;;;30.05;26.85;;;;;;;21.58;88.53;101025.50;5051073;28;20039;-72
2022/08/17 10:17:29;;;;;;;29.58;26.55;;;;;;;21.48;88.70;101012.38;5038688;28;20075;-72
2022/08/17 10:20:09;;;;;;;31.85;28.63;;;;;;;21.40;92.69;101012.44;5052226;28;20032;-72
2022/08/17 10:28:20;;;;;;;34.55;29.80;;;;;;;21.17;92.61;101007.06;5048511;28;20551;-73
2022/08/17 10:30:49;;;;;;;34.03;30.67;;;;;;;21.12;93.71;101014.78;5049996;28;20078;-72
2022/08/17 10:33:22;;;;;;;33.60;30.33;;;;;;;21.06;94.30;101012.84;5047678;28;20151;-72
2022/08/17 10:36:02;;;;;;;36.08;32.53;;;;;;;20.93;94.88;101017.94;5048903;28;20383;-72
2022/08/17 10:38:29;;;;;;;36.40;32.80;;;;;;;20.86;95.38;101030.38;5048348;28;20051;-72
2022/08/17 10:40:58;;;;;;;34.88;31.58;;;;;;;20.94;96.77;101016.94;5048919;28;20025;-73
2022/08/17 10:43:38;;;;;;;36.75;33.33;;;;;;;20.98;97.29;101007.53;5053334;28;20104;-73
2022/08/17 10:46:20;;;;;;;36.65;33.03;;;;;;;21.08;97.73;100997.44;5042541;28;20028;-73
2022/08/17 10:49:20;;;;;;;38.13;34.17;;;;;;;21.20;96.48;100995.16;5049390;28;20078;-73
2022/08/17 10:51:51;;;;;;;36.72;33.03;;;;;;;21.13;98.06;100989.69;5042896;28;20032;-73
2022/08/17 10:54:23;;;;;;;34.95;31.52;;;;;;;21.22;96.43;100982.47;5049097;28;20040;-73
2022/08/17 10:56:50;;;;;;;34.55;31.27;;;;;;;21.14;95.83;100975.31;5046124;28;20032;-72
2022/08/17 10:59:33;;;;;;;32.40;29.40;;;;;;;21.16;95.21;100965.25;5055955;28;20476;-72
2022/08/17 11:02:30;;;;;;;33.53;30.00;;;;;;;21.14;95.08;100967.28;5039950;28;20029;-81
2022/08/17 11:05:21;;;;;;;33.35;30.15;;;;;;;21.09;94.72;100974.19;5049189;28;20043;-82
2022/08/17 11:08:42;;;;;;;32.72;29.38;;;;;;;21.13;95.11;100979.00;5047975;28;20542;-82
2022/08/17 11:11:35;;;;;;;32.83;29.55;;;;;;;21.06;97.18;100985.25;4983972;28;20041;-80
2022/08/17 11:14:32;;;;;;;33.60;30.38;;;;;;;21.00;96.27;100976.09;5040770;28;20037;-81
2022/08/17 11:17:03;;;;;;;33.45;30.13;;;;;;;20.94;96.53;100979.47;5044343;28;20028;-72
2022/08/17 11:19:58;;;;;;;32.97;29.60;;;;;;;20.86;95.67;100982.22;5051141;28;20062;-72
2022/08/17 11:22:25;;;;;;;33.55;30.55;;;;;;;20.79;96.93;100981.25;5044908;28;20475;-72
2022/08/17 11:24:52;;;;;;;33.78;30.48;;;;;;;20.65;96.89;100999.72;5045536;28;20033;-74
2022/08/17 11:27:25;;;;;;;35.00;31.48;;;;;;;20.61;96.77;100995.72;5043616;28;20021;-72
2022/08/17 11:30:13;;;;;;;33.50;30.23;;;;;;;20.67;97.35;101009.41;5050501;28;20057;-81
2022/08/17 11:32:47;;;;;;;34.17;30.60;;;;;;;20.67;97.78;101020.09;5049737;28;20035;-81
2022/08/17 11:35:21;;;;;;;35.45;31.80;;;;;;;20.64;97.70;101027.47;5042122;28;20031;-80
2022/08/17 11:38:09;;;;;;;37.75;32.83;;;;;;;20.60;97.72;101042.19;5053196;28;20103;-81
2022/08/17 11:40:40;;;;;;;34.45;31.00;;;;;;;20.54;97.51;101040.22;5041807;28;20061;-80
2022/08/17 11:43:28;;;;;;;32.88;29.45;;;;;;;20.50;96.66;101041.56;5039814;28;20053;-80
2022/08/17 11:46:24;;;;;;;37.25;33.38;;;;;;;20.56;99.45;101045.38;5043435;28;20108;-81
2022/08/17 11:51:59;;;;;;;34.53;31.23;;;;;;;20.57;99.28;101047.88;5054150;28;20869;-81
2022/08/17 11:54:46;;;;;;;35.65;32.03;;;;;;;20.65;96.42;101045.16;5045057;28;20021;-81
2022/08/17 11:57:28;;;;;;;34.33;30.75;;;;;;;20.65;96.99;101055.88;5056303;28;20044;-73
2022/08/17 11:59:57;;;;;;;35.55;31.75;;;;;;;20.70;98.71;101067.88;5053068;28;20032;-71
2022/08/17 12:02:33;;;;;;;37.97;34.35;;;;;;;20.71;99.36;101064.19;5048983;28;20064;-74
2022/08/17 12:05:13;;;;;;;36.30;32.80;;;;;;;20.69;98.62;101063.53;5046627;28;20029;-82
2022/08/17 12:08:11;;;;;;;37.22;33.60;;;;;;;20.73;100.00;101062.19;5047519;28;20034;-71